Map

Track Data

SID SEASON NUMBER BASIN SUBBASIN NAME ISO_TIME NATURE LAT LON WMO_WIND WMO_PRES WMO_AGENCY TRACK_TYPE DIST2LAND LANDFALL IFLAG USA_AGENCY USA_ATCF_ID USA_LAT USA_LON USA_RECORD USA_STATUS USA_WIND USA_PRES USA_SSHS USA_R34_NE USA_R34_SE USA_R34_SW USA_R34_NW USA_R50_NE USA_R50_SE USA_R50_SW USA_R50_NW USA_R64_NE USA_R64_SE USA_R64_SW USA_R64_NW USA_POCI USA_ROCI USA_RMW USA_EYE TOKYO_LAT TOKYO_LON TOKYO_GRADE TOKYO_WIND TOKYO_PRES TOKYO_R50_DIR TOKYO_R50_LONG TOKYO_R50_SHORT TOKYO_R30_DIR TOKYO_R30_LONG TOKYO_R30_SHORT TOKYO_LAND CMA_LAT CMA_LON CMA_CAT CMA_WIND CMA_PRES HKO_LAT HKO_LON HKO_CAT HKO_WIND HKO_PRES NEWDELHI_LAT NEWDELHI_LON NEWDELHI_GRADE NEWDELHI_WIND NEWDELHI_PRES NEWDELHI_CI NEWDELHI_DP NEWDELHI_POCI REUNION_LAT REUNION_LON REUNION_TYPE REUNION_WIND REUNION_PRES REUNION_TNUM REUNION_CI REUNION_RMW REUNION_R34_NE REUNION_R34_SE REUNION_R34_SW REUNION_R34_NW REUNION_R50_NE REUNION_R50_SE REUNION_R50_SW REUNION_R50_NW REUNION_R64_NE REUNION_R64_SE REUNION_R64_SW REUNION_R64_NW BOM_LAT BOM_LON BOM_TYPE BOM_WIND BOM_PRES BOM_TNUM BOM_CI BOM_RMW BOM_R34_NE BOM_R34_SE BOM_R34_SW BOM_R34_NW BOM_R50_NE BOM_R50_SE BOM_R50_SW BOM_R50_NW BOM_R64_NE BOM_R64_SE BOM_R64_SW BOM_R64_NW BOM_ROCI BOM_POCI BOM_EYE BOM_POS_METHOD BOM_PRES_METHOD NADI_LAT NADI_LON NADI_CAT NADI_WIND NADI_PRES WELLINGTON_LAT WELLINGTON_LON WELLINGTON_WIND WELLINGTON_PRES DS824_LAT DS824_LON DS824_STAGE DS824_WIND DS824_PRES TD9636_LAT TD9636_LON TD9636_STAGE TD9636_WIND TD9636_PRES TD9635_LAT TD9635_LON TD9635_WIND TD9635_PRES TD9635_ROCI NEUMANN_LAT NEUMANN_LON NEUMANN_CLASS NEUMANN_WIND NEUMANN_PRES MLC_LAT MLC_LON MLC_CLASS MLC_WIND MLC_PRES USA_GUST BOM_GUST BOM_GUST_PER REUNION_GUST REUNION_GUST_PER USA_SEAHGT USA_SEARAD_NE USA_SEARAD_SE USA_SEARAD_SW USA_SEARAD_NW STORM_SPEED STORM_DIR
1971278N18134 1971 131 WP MM NOT_NAMED 1971-10-05 06:00:00 TS 18.0000 134.000 main 1119 1075 __O___________ -1 18.0000 134.000 0 19 1005 15 300
1971278N18134 1971 131 WP MM NOT_NAMED 1971-10-05 09:00:00 TS 18.3884 133.303 main 1075 1056 __P___________ -1 18.3884 133.303 0 19 1005 15 311
1971278N18134 1971 131 WP MM NOT_NAMED 1971-10-05 12:00:00 TS 19.0000 132.800 main 1062 1058 __O___________ -1 19.0000 132.800 0 19 1005 17 338
1971278N18134 1971 131 WP MM NOT_NAMED 1971-10-05 15:00:00 TS 19.9622 132.617 main 1096 1096 __P___________ -1 19.9622 132.617 0 19 1005 20 355
1971278N18134 1971 131 WP MM NOT_NAMED 1971-10-05 18:00:00 TS 21.0000 132.600 main 1116 1044 __O___________ -1 21.0000 132.600 0 19 1005 19 358
1971278N18134 1971 131 WP MM NOT_NAMED 1971-10-05 21:00:00 TS 21.8324 132.550 main 1043 965 __P___________ -1 21.8324 132.550 0 19 1004 15 356
1971278N18134 1971 131 WP MM NOT_NAMED 1971-10-06 00:00:00 TS 22.5000 132.500 main 965 909 __O___________ -1 22.5000 132.500 0 19 1004 12 354
1971278N18134 1971 131 WP MM NOT_NAMED 1971-10-06 03:00:00 TS 23.0174 132.422 main 909 863 __P___________ -1 23.0174 132.422 0 19 1003 9 348
1971278N18134 1971 131 WP MM NOT_NAMED 1971-10-06 06:00:00 TS 23.4000 132.300 main 863 826 __O___________ -1 23.4000 132.300 0 19 1002 8 335
1971278N18134 1971 131 WP MM NOT_NAMED 1971-10-06 09:00:00 TS 23.7151 132.070 main 826 790 __P___________ -1 23.7151 132.070 0 19 1003 7 329
1971278N18134 1971 131 WP MM NOT_NAMED 1971-10-06 12:00:00 TS 24.0000 131.900 main 790 757 __O___________ -1 24.0000 131.900 0 19 1004 6 350
1971278N18134 1971 131 WP MM NOT_NAMED 1971-10-06 15:00:00 TS 24.3424 131.940 main 757 716 __P___________ -1 24.3424 131.940 0 19 1004 7 15
1971278N18134 1971 131 WP MM NOT_NAMED 1971-10-06 18:00:00 TS 24.7000 132.100 main 716 685 __O___________ -1 24.7000 132.100 0 19 1005 8 23
1971278N18134 1971 131 WP MM NOT_NAMED 1971-10-06 21:00:00 TS 25.0575 132.278 main 677 649 __P___________ -1 25.0575 132.278 0 21 1005 8 27
1971278N18134 1971 131 WP MM NOT_NAMED 1971-10-07 00:00:00 TS 25.4000 132.500 main 649 623 __O___________ -1 25.4000 132.500 1 23 1005 8 33
1971278N18134 1971 131 WP MM NOT_NAMED 1971-10-07 03:00:00 TS 25.6925 132.735 main 623 601 __P___________ -1 25.6925 132.735 1 23 1005 8 37
1971278N18134 1971 131 WP MM NOT_NAMED 1971-10-07 06:00:00 TS 26.0000 133.000 main 601 572 __O___________ -1 26.0000 133.000 1 23 1005 8 35
1971278N18134 1971 131 WP MM NOT_NAMED 1971-10-07 09:00:00 TS 26.3849 133.278 main 572 547 __P___________ -1 26.3849 133.278 1 35 1006 10 34
1971278N18134 1971 131 WP MM NOT_NAMED 1971-10-07 12:00:00 ET 26.8000 133.600 main 547 525 __O___________ -1 26.8000 133.600 9 48 1007 10 37
1971278N18134 1971 131 WP MM NOT_NAMED 1971-10-07 15:00:00 ET 27.2053 133.982 main 531 513 __P___________ -1 27.2053 133.982 9 43 1007 11 42
1971278N18134 1971 131 WP MM NOT_NAMED 1971-10-07 18:00:00 ET 27.6000 134.400 main 513 __O___________ -1 27.6000 134.400 9 38 1007 11 43

Digital Typhoon Data and Search

About IBTrACS Database

This database is a web-friendly format of International Best Track Archive for Climate Stewardship (IBTrACS), a global best track data archive curated by NOAA dating back to 1842.

Updated: 2021-10-08